< Typhoon 195821 1958 Season Typhoon 195823 >
Typhoon 195822 (IDA)
Kanogawa Typhoon
General InformationTrack Information on Google Maps || NewsDisaster Info.ResourceGoogle EarthGE AnimationAtom FeedGeoJSON
Detalied Best Track (Time Zone = UTC)
Year Month Day Hour Lat. Long. Pressure (hPa) Wind (kt) Class Image Chart
1958 9 20 06 13.5 147.6 1006 0 2 -- Chart
1958 9 20 12 13.4 146.5 1004 0 2 -- Chart
1958 9 20 18 13.3 144.7 990 0 9 -- Chart
1958 9 21 00 13.5 143.4 986 0 9 -- Chart
1958 9 21 06 13.1 142.1 987 0 9 -- Chart
1958 9 21 12 13.0 141.0 987 0 9 -- Chart
1958 9 21 18 12.9 140.1 987 0 9 -- Chart
1958 9 22 00 12.7 139.3 987 0 9 -- Chart
1958 9 22 06 12.8 138.5 986 0 9 -- Chart
1958 9 22 12 13.1 137.8 981 0 9 -- Chart
1958 9 22 18 13.5 137.5 975 0 9 -- Chart
1958 9 23 00 14.2 137.1 960 0 9 -- Chart
1958 9 23 06 14.9 136.6 935 0 9 -- Chart
1958 9 23 12 15.8 136.3 896 0 9 -- Chart
1958 9 23 18 16.9 135.8 882 0 9 -- Chart
1958 9 24 00 18.0 135.5 878 0 9 -- Chart
1958 9 24 06 19.3 135.2 877 0 9 -- Chart
1958 9 24 12 20.7 134.7 877 0 9 -- Chart
1958 9 24 18 22.1 134.6 878 0 9 -- Chart
1958 9 25 00 23.3 134.7 883 0 9 -- Chart
1958 9 25 06 24.3 134.8 895 0 9 -- Chart
1958 9 25 12 25.8 135.3 910 0 9 -- Chart
1958 9 25 18 28.2 136.4 925 0 9 -- Chart
1958 9 26 00 30.4 136.6 935 0 9 -- Chart
1958 9 26 06 32.6 137.5 945 0 9 -- Chart
1958 9 26 12 34.4 139.0 955 0 9 -- Chart
1958 9 26 18 36.6 140.4 980 0 9 -- Chart
1958 9 27 00 38.8 142.0 990 0 6 -- Chart
1958 9 27 06 40.0 142.0 990 0 6 -- Chart
1958 9 27 12 41.1 142.1 990 0 6 -- Chart
1958 9 27 18 42.0 143.9 992 0 6 -- Chart
1958 9 28 00 43.1 145.1 992 0 6 -- Chart
1958 9 28 06 43.7 146.2 992 0 6 -- Chart
1958 9 28 12 43.3 148.0 996 0 6 -- Chart
1958 9 28 18 43.2 150.0 1000 0 6 -- Chart
Japan Meteorological Agency Best Track Data | Correction Date : 1989-06-01
< Typhoon 195821 1958 Season Typhoon 195823 >

Help